sensor_id;sensor_type;location;lat;lon;timestamp;temperature;humidity
27647;DHT22;42229;51.230;6.240;2023-03-26T00:01:04;10.90;99.90
27647;DHT22;42229;51.230;6.240;2023-03-26T00:03:32;10.90;99.90
27647;DHT22;42229;51.230;6.240;2023-03-26T00:06:09;10.90;99.90
27647;DHT22;42229;51.230;6.240;2023-03-26T00:08:38;10.90;99.90
27647;DHT22;42229;51.230;6.240;2023-03-26T00:11:07;10.80;99.90
27647;DHT22;42229;51.230;6.240;2023-03-26T00:13:34;10.80;99.90
27647;DHT22;42229;51.230;6.240;2023-03-26T00:16:01;10.70;99.90
27647;DHT22;42229;51.230;6.240;2023-03-26T00:18:28;10.60;99.90
27647;DHT22;42229;51.230;6.240;2023-03-26T00:20:57;10.50;99.90
27647;DHT22;42229;51.230;6.240;2023-03-26T00:23:24;10.50;99.90
27647;DHT22;42229;51.230;6.240;2023-03-26T00:25:51;10.50;99.90
27647;DHT22;42229;51.230;6.240;2023-03-26T00:28:18;10.40;99.90
27647;DHT22;42229;51.230;6.240;2023-03-26T00:30:46;10.40;99.90
27647;DHT22;42229;51.230;6.240;2023-03-26T00:33:13;10.30;99.90
27647;DHT22;42229;51.230;6.240;2023-03-26T00:35:42;10.30;99.90
27647;DHT22;42229;51.230;6.240;2023-03-26T00:38:14;10.30;99.90
27647;DHT22;42229;51.230;6.240;2023-03-26T00:40:42;10.30;99.90
27647;DHT22;42229;51.230;6.240;2023-03-26T00:43:13;10.30;99.90
27647;DHT22;42229;51.230;6.240;2023-03-26T00:45:46;10.30;99.90
27647;DHT22;42229;51.230;6.240;2023-03-26T00:48:14;10.20;99.90
27647;DHT22;42229;51.230;6.240;2023-03-26T00:50:41;10.20;99.90
27647;DHT22;42229;51.230;6.240;2023-03-26T00:53:09;10.20;99.90
27647;DHT22;42229;51.230;6.240;2023-03-26T00:55:39;10.20;99.90
27647;DHT22;42229;51.230;6.240;2023-03-26T00:58:06;10.20;99.90
27647;DHT22;42229;51.230;6.240;2023-03-26T01:00:37;10.20;99.90
27647;DHT22;42229;51.230;6.240;2023-03-26T01:03:09;10.20;99.90
27647;DHT22;42229;51.230;6.240;2023-03-26T01:05:42;10.20;99.90
27647;DHT22;42229;51.230;6.240;2023-03-26T01:10:56;10.20;99.90
27647;DHT22;42229;51.230;6.240;2023-03-26T01:13:29;10.20;99.90
27647;DHT22;42229;51.230;6.240;2023-03-26T01:15:58;10.20;99.90
27647;DHT22;42229;51.230;6.240;2023-03-26T01:18:27;10.10;99.90
27647;DHT22;42229;51.230;6.240;2023-03-26T01:20:59;10.10;99.90
27647;DHT22;42229;51.230;6.240;2023-03-26T01:23:41;10.10;99.90
27647;DHT22;42229;51.230;6.240;2023-03-26T01:26:11;10.10;99.90
27647;DHT22;42229;51.230;6.240;2023-03-26T01:28:46;10.10;99.90
27647;DHT22;42229;51.230;6.240;2023-03-26T01:31:15;10.00;99.90
27647;DHT22;42229;51.230;6.240;2023-03-26T01:33:51;9.90;99.90
27647;DHT22;42229;51.230;6.240;2023-03-26T01:36:27;9.80;99.90
27647;DHT22;42229;51.230;6.240;2023-03-26T01:39:07;9.80;99.90
27647;DHT22;42229;51.230;6.240;2023-03-26T01:41:44;9.70;99.90
27647;DHT22;42229;51.230;6.240;2023-03-26T01:47:07;9.50;99.90
27647;DHT22;42229;51.230;6.240;2023-03-26T01:49:34;9.50;99.90
27647;DHT22;42229;51.230;6.240;2023-03-26T01:52:01;9.40;99.90
27647;DHT22;42229;51.230;6.240;2023-03-26T01:54:28;9.30;99.90
27647;DHT22;42229;51.230;6.240;2023-03-26T02:05:08;9.20;99.90
27647;DHT22;42229;51.230;6.240;2023-03-26T02:07:41;9.20;99.90
27647;DHT22;42229;51.230;6.240;2023-03-26T02:12:54;9.20;99.90
27647;DHT22;42229;51.230;6.240;2023-03-26T02:15:21;9.20;99.90
27647;DHT22;42229;51.230;6.240;2023-03-26T02:17:47;9.20;99.90
27647;DHT22;42229;51.230;6.240;2023-03-26T02:20:14;9.20;99.90
27647;DHT22;42229;51.230;6.240;2023-03-26T02:22:44;9.20;99.90
27647;DHT22;42229;51.230;6.240;2023-03-26T02:25:17;9.30;99.90
27647;DHT22;42229;51.230;6.240;2023-03-26T02:27:47;9.30;99.90
27647;DHT22;42229;51.230;6.240;2023-03-26T02:30:16;9.30;99.90
27647;DHT22;42229;51.230;6.240;2023-03-26T02:32:48;9.30;99.90
27647;DHT22;42229;51.230;6.240;2023-03-26T02:35:20;9.40;99.90
27647;DHT22;42229;51.230;6.240;2023-03-26T02:37:49;9.40;99.90
27647;DHT22;42229;51.230;6.240;2023-03-26T02:40:19;9.40;99.90
27647;DHT22;42229;51.230;6.240;2023-03-26T02:42:47;9.40;99.90
27647;DHT22;42229;51.230;6.240;2023-03-26T02:45:14;9.40;99.90
27647;DHT22;42229;51.230;6.240;2023-03-26T02:48:06;9.40;99.90
27647;DHT22;42229;51.230;6.240;2023-03-26T02:50:44;9.40;99.90
27647;DHT22;42229;51.230;6.240;2023-03-26T02:53:34;9.40;99.90
27647;DHT22;42229;51.230;6.240;2023-03-26T02:56:25;9.50;99.90
27647;DHT22;42229;51.230;6.240;2023-03-26T02:59:07;9.50;99.90
27647;DHT22;42229;51.230;6.240;2023-03-26T03:01:33;9.50;99.90
27647;DHT22;42229;51.230;6.240;2023-03-26T03:04:02;9.50;99.90
27647;DHT22;42229;51.230;6.240;2023-03-26T03:06:35;9.50;99.90
27647;DHT22;42229;51.230;6.240;2023-03-26T03:09:04;9.60;99.90
27647;DHT22;42229;51.230;6.240;2023-03-26T03:11:37;9.60;99.90
27647;DHT22;42229;51.230;6.240;2023-03-26T03:14:05;9.60;99.90
27647;DHT22;42229;51.230;6.240;2023-03-26T03:16:32;9.60;99.90
27647;DHT22;42229;51.230;6.240;2023-03-26T03:19:03;9.70;99.90
27647;DHT22;42229;51.230;6.240;2023-03-26T03:21:36;9.70;99.90
27647;DHT22;42229;51.230;6.240;2023-03-26T03:24:02;9.70;99.90
27647;DHT22;42229;51.230;6.240;2023-03-26T03:26:33;9.70;99.90
27647;DHT22;42229;51.230;6.240;2023-03-26T03:29:16;9.80;99.90
27647;DHT22;42229;51.230;6.240;2023-03-26T03:31:42;9.80;99.90
27647;DHT22;42229;51.230;6.240;2023-03-26T03:34:20;9.80;99.90
27647;DHT22;42229;51.230;6.240;2023-03-26T03:36:50;9.80;99.90
27647;DHT22;42229;51.230;6.240;2023-03-26T03:39:38;9.80;99.90
27647;DHT22;42229;51.230;6.240;2023-03-26T03:42:04;9.80;99.90
27647;DHT22;42229;51.230;6.240;2023-03-26T03:44:33;9.80;99.90
27647;DHT22;42229;51.230;6.240;2023-03-26T03:47:02;9.90;99.90
27647;DHT22;42229;51.230;6.240;2023-03-26T03:49:28;9.90;99.90
27647;DHT22;42229;51.230;6.240;2023-03-26T03:51:56;9.90;99.90
27647;DHT22;42229;51.230;6.240;2023-03-26T03:54:36;9.90;99.90
27647;DHT22;42229;51.230;6.240;2023-03-26T03:57:19;9.90;99.90
27647;DHT22;42229;51.230;6.240;2023-03-26T03:59:58;9.90;99.90
27647;DHT22;42229;51.230;6.240;2023-03-26T04:02:27;9.90;99.90
27647;DHT22;42229;51.230;6.240;2023-03-26T04:05:02;10.00;99.90
27647;DHT22;42229;51.230;6.240;2023-03-26T04:07:30;10.00;99.90
27647;DHT22;42229;51.230;6.240;2023-03-26T04:10:07;10.00;99.90
27647;DHT22;42229;51.230;6.240;2023-03-26T04:12:52;10.00;99.90
27647;DHT22;42229;51.230;6.240;2023-03-26T04:15:25;10.00;99.90
27647;DHT22;42229;51.230;6.240;2023-03-26T04:17:52;10.00;99.90
27647;DHT22;42229;51.230;6.240;2023-03-26T04:20:18;10.00;99.90
27647;DHT22;42229;51.230;6.240;2023-03-26T04:22:47;10.00;99.90
27647;DHT22;42229;51.230;6.240;2023-03-26T04:25:15;9.90;99.90
27647;DHT22;42229;51.230;6.240;2023-03-26T04:27:54;9.90;99.90
27647;DHT22;42229;51.230;6.240;2023-03-26T04:30:45;9.90;99.90
27647;DHT22;42229;51.230;6.240;2023-03-26T04:33:32;9.90;99.90
27647;DHT22;42229;51.230;6.240;2023-03-26T04:36:00;9.90;99.90
27647;DHT22;42229;51.230;6.240;2023-03-26T04:38:29;9.80;99.90
27647;DHT22;42229;51.230;6.240;2023-03-26T04:40:59;9.80;99.90
27647;DHT22;42229;51.230;6.240;2023-03-26T04:43:37;9.80;99.90
27647;DHT22;42229;51.230;6.240;2023-03-26T04:46:26;9.70;99.90
27647;DHT22;42229;51.230;6.240;2023-03-26T04:49:03;9.70;99.90
27647;DHT22;42229;51.230;6.240;2023-03-26T04:51:32;9.70;99.90
27647;DHT22;42229;51.230;6.240;2023-03-26T04:54:04;9.70;99.90
27647;DHT22;42229;51.230;6.240;2023-03-26T04:59:29;9.60;99.90
27647;DHT22;42229;51.230;6.240;2023-03-26T05:02:01;9.60;99.90
27647;DHT22;42229;51.230;6.240;2023-03-26T05:04:33;9.60;99.90
27647;DHT22;42229;51.230;6.240;2023-03-26T05:07:01;9.60;99.90
27647;DHT22;42229;51.230;6.240;2023-03-26T05:09:41;9.60;99.90
27647;DHT22;42229;51.230;6.240;2023-03-26T05:12:11;9.60;99.90
27647;DHT22;42229;51.230;6.240;2023-03-26T05:14:49;9.60;99.90
27647;DHT22;42229;51.230;6.240;2023-03-26T05:17:22;9.60;99.90
27647;DHT22;42229;51.230;6.240;2023-03-26T05:19:49;9.60;99.90
27647;DHT22;42229;51.230;6.240;2023-03-26T05:22:17;9.60;99.90
27647;DHT22;42229;51.230;6.240;2023-03-26T05:25:03;9.60;99.90
27647;DHT22;42229;51.230;6.240;2023-03-26T05:27:31;9.70;99.90
27647;DHT22;42229;51.230;6.240;2023-03-26T05:30:01;9.70;99.90
27647;DHT22;42229;51.230;6.240;2023-03-26T05:32:33;9.70;99.90
27647;DHT22;42229;51.230;6.240;2023-03-26T05:34:59;9.70;99.90
27647;DHT22;42229;51.230;6.240;2023-03-26T05:37:27;9.70;99.90
27647;DHT22;42229;51.230;6.240;2023-03-26T05:40:05;9.70;99.90
27647;DHT22;42229;51.230;6.240;2023-03-26T05:42:55;9.80;99.90
27647;DHT22;42229;51.230;6.240;2023-03-26T05:45:29;9.80;99.90
27647;DHT22;42229;51.230;6.240;2023-03-26T05:47:57;9.80;99.90
27647;DHT22;42229;51.230;6.240;2023-03-26T05:50:25;9.80;99.90
27647;DHT22;42229;51.230;6.240;2023-03-26T05:52:55;9.90;99.90
27647;DHT22;42229;51.230;6.240;2023-03-26T05:55:39;9.90;99.90
27647;DHT22;42229;51.230;6.240;2023-03-26T05:58:32;9.90;99.90
27647;DHT22;42229;51.230;6.240;2023-03-26T06:01:18;9.90;99.90
27647;DHT22;42229;51.230;6.240;2023-03-26T06:04:19;9.90;99.90
27647;DHT22;42229;51.230;6.240;2023-03-26T06:07:08;10.00;99.90
27647;DHT22;42229;51.230;6.240;2023-03-26T06:09:35;10.00;99.90
27647;DHT22;42229;51.230;6.240;2023-03-26T06:12:04;10.00;99.90
27647;DHT22;42229;51.230;6.240;2023-03-26T06:14:31;10.00;99.90
27647;DHT22;42229;51.230;6.240;2023-03-26T06:17:10;10.00;99.90
27647;DHT22;42229;51.230;6.240;2023-03-26T06:19:56;10.00;99.90
27647;DHT22;42229;51.230;6.240;2023-03-26T06:22:32;10.00;99.90
27647;DHT22;42229;51.230;6.240;2023-03-26T06:25:12;10.00;99.90
27647;DHT22;42229;51.230;6.240;2023-03-26T06:28:06;10.00;99.90
27647;DHT22;42229;51.230;6.240;2023-03-26T06:31:00;10.00;99.90
27647;DHT22;42229;51.230;6.240;2023-03-26T06:33:36;10.00;99.90
27647;DHT22;42229;51.230;6.240;2023-03-26T06:36:02;10.00;99.90
27647;DHT22;42229;51.230;6.240;2023-03-26T06:38:29;10.00;99.90
27647;DHT22;42229;51.230;6.240;2023-03-26T06:41:02;10.00;99.90
27647;DHT22;42229;51.230;6.240;2023-03-26T06:43:47;10.00;99.90
27647;DHT22;42229;51.230;6.240;2023-03-26T06:46:33;10.00;99.90
27647;DHT22;42229;51.230;6.240;2023-03-26T06:49:37;10.00;99.90
27647;DHT22;42229;51.230;6.240;2023-03-26T06:52:26;10.00;99.90
27647;DHT22;42229;51.230;6.240;2023-03-26T06:55:19;10.00;99.90
27647;DHT22;42229;51.230;6.240;2023-03-26T06:58:02;10.00;99.90
27647;DHT22;42229;51.230;6.240;2023-03-26T07:01:06;10.00;99.90
27647;DHT22;42229;51.230;6.240;2023-03-26T07:03:51;10.00;99.90
27647;DHT22;42229;51.230;6.240;2023-03-26T07:06:36;10.00;99.90
27647;DHT22;42229;51.230;6.240;2023-03-26T07:09:20;10.00;99.90
27647;DHT22;42229;51.230;6.240;2023-03-26T07:11:59;10.00;99.90
27647;DHT22;42229;51.230;6.240;2023-03-26T07:14:48;10.00;99.90
27647;DHT22;42229;51.230;6.240;2023-03-26T07:17:43;10.10;99.90
27647;DHT22;42229;51.230;6.240;2023-03-26T07:20:21;10.00;99.90
27647;DHT22;42229;51.230;6.240;2023-03-26T07:22:48;10.10;99.90
27647;DHT22;42229;51.230;6.240;2023-03-26T07:25:17;10.10;99.90
27647;DHT22;42229;51.230;6.240;2023-03-26T07:31:29;10.20;99.90
27647;DHT22;42229;51.230;6.240;2023-03-26T07:34:33;10.20;99.90
27647;DHT22;42229;51.230;6.240;2023-03-26T07:43:25;10.30;99.90
27647;DHT22;42229;51.230;6.240;2023-03-26T07:46:18;10.30;99.90
27647;DHT22;42229;51.230;6.240;2023-03-26T07:48:57;10.30;99.90
27647;DHT22;42229;51.230;6.240;2023-03-26T07:51:32;10.30;99.90
27647;DHT22;42229;51.230;6.240;2023-03-26T07:54:10;10.30;99.90
27647;DHT22;42229;51.230;6.240;2023-03-26T07:56:57;10.30;99.90
27647;DHT22;42229;51.230;6.240;2023-03-26T07:59:50;10.40;99.90
27647;DHT22;42229;51.230;6.240;2023-03-26T08:03:05;10.40;99.90
27647;DHT22;42229;51.230;6.240;2023-03-26T08:14:07;10.40;99.90
27647;DHT22;42229;51.230;6.240;2023-03-26T08:16:44;10.40;99.90
27647;DHT22;42229;51.230;6.240;2023-03-26T08:22:28;10.40;99.90
27647;DHT22;42229;51.230;6.240;2023-03-26T08:25:00;10.50;99.90
27647;DHT22;42229;51.230;6.240;2023-03-26T08:27:36;10.50;99.90
27647;DHT22;42229;51.230;6.240;2023-03-26T08:30:13;10.40;99.90
27647;DHT22;42229;51.230;6.240;2023-03-26T08:32:43;10.50;99.90
27647;DHT22;42229;51.230;6.240;2023-03-26T08:35:15;10.50;99.90
27647;DHT22;42229;51.230;6.240;2023-03-26T08:37:41;10.50;99.90
27647;DHT22;42229;51.230;6.240;2023-03-26T08:40:10;10.40;99.90
27647;DHT22;42229;51.230;6.240;2023-03-26T08:42:42;10.40;99.90
27647;DHT22;42229;51.230;6.240;2023-03-26T09:35:44;10.50;99.90
27647;DHT22;42229;51.230;6.240;2023-03-26T09:41:16;10.50;99.90
27647;DHT22;42229;51.230;6.240;2023-03-26T09:46:45;10.40;99.90
27647;DHT22;42229;51.230;6.240;2023-03-26T09:52:13;10.40;99.90
27647;DHT22;42229;51.230;6.240;2023-03-26T09:55:03;10.40;99.90
27647;DHT22;42229;51.230;6.240;2023-03-26T10:14:17;10.40;99.90
27647;DHT22;42229;51.230;6.240;2023-03-26T10:16:54;10.50;99.90
27647;DHT22;42229;51.230;6.240;2023-03-26T10:27:52;10.60;99.90
27647;DHT22;42229;51.230;6.240;2023-03-26T10:30:50;10.70;99.90
27647;DHT22;42229;51.230;6.240;2023-03-26T10:36:49;10.80;99.90
27647;DHT22;42229;51.230;6.240;2023-03-26T10:45:08;10.90;99.90
27647;DHT22;42229;51.230;6.240;2023-03-26T10:51:17;11.00;99.90
27647;DHT22;42229;51.230;6.240;2023-03-26T10:56:50;11.10;99.90
27647;DHT22;42229;51.230;6.240;2023-03-26T10:59:23;11.10;99.90
27647;DHT22;42229;51.230;6.240;2023-03-26T11:05:08;11.20;99.90
27647;DHT22;42229;51.230;6.240;2023-03-26T11:08:01;11.20;99.90
27647;DHT22;42229;51.230;6.240;2023-03-26T11:13:17;11.30;99.90
27647;DHT22;42229;51.230;6.240;2023-03-26T11:15:51;11.40;99.90
27647;DHT22;42229;51.230;6.240;2023-03-26T11:26:37;11.40;99.90
27647;DHT22;42229;51.230;6.240;2023-03-26T11:29:12;11.50;99.90
27647;DHT22;42229;51.230;6.240;2023-03-26T11:31:57;11.50;99.90
27647;DHT22;42229;51.230;6.240;2023-03-26T11:37:22;11.50;99.90
27647;DHT22;42229;51.230;6.240;2023-03-26T11:39:55;11.50;99.90
27647;DHT22;42229;51.230;6.240;2023-03-26T11:42:23;11.50;99.90
27647;DHT22;42229;51.230;6.240;2023-03-26T11:44:57;11.50;99.90
27647;DHT22;42229;51.230;6.240;2023-03-26T11:47:32;11.60;99.90
27647;DHT22;42229;51.230;6.240;2023-03-26T11:50:02;11.60;99.90
27647;DHT22;42229;51.230;6.240;2023-03-26T11:52:30;11.60;99.90
27647;DHT22;42229;51.230;6.240;2023-03-26T11:54:56;11.60;99.90
27647;DHT22;42229;51.230;6.240;2023-03-26T11:57:25;11.60;99.90
27647;DHT22;42229;51.230;6.240;2023-03-26T12:02:28;11.60;99.90
27647;DHT22;42229;51.230;6.240;2023-03-26T12:05:15;11.60;99.90
27647;DHT22;42229;51.230;6.240;2023-03-26T12:07:57;11.50;99.90
27647;DHT22;42229;51.230;6.240;2023-03-26T12:10:37;11.50;99.90
27647;DHT22;42229;51.230;6.240;2023-03-26T12:13:42;11.50;99.90
27647;DHT22;42229;51.230;6.240;2023-03-26T12:16:06;11.50;99.90
27647;DHT22;42229;51.230;6.240;2023-03-26T12:18:33;11.50;99.90
27647;DHT22;42229;51.230;6.240;2023-03-26T12:21:06;11.50;99.90
27647;DHT22;42229;51.230;6.240;2023-03-26T12:26:38;11.50;99.90
27647;DHT22;42229;51.230;6.240;2023-03-26T12:29:14;11.50;99.90
27647;DHT22;42229;51.230;6.240;2023-03-26T12:34:39;11.60;99.90
27647;DHT22;42229;51.230;6.240;2023-03-26T12:43:19;11.70;99.90
27647;DHT22;42229;51.230;6.240;2023-03-26T12:45:56;11.70;99.90
27647;DHT22;42229;51.230;6.240;2023-03-26T12:48:33;11.80;99.90
27647;DHT22;42229;51.230;6.240;2023-03-26T12:57:22;11.90;99.90
27647;DHT22;42229;51.230;6.240;2023-03-26T13:03:00;12.10;99.90
27647;DHT22;42229;51.230;6.240;2023-03-26T13:08:55;12.20;99.90
27647;DHT22;42229;51.230;6.240;2023-03-26T13:11:41;12.20;99.90
27647;DHT22;42229;51.230;6.240;2023-03-26T13:14:40;12.30;99.90
27647;DHT22;42229;51.230;6.240;2023-03-26T13:19:41;12.30;99.90
27647;DHT22;42229;51.230;6.240;2023-03-26T13:28:12;12.30;99.90
27647;DHT22;42229;51.230;6.240;2023-03-26T13:30:43;12.30;99.90
27647;DHT22;42229;51.230;6.240;2023-03-26T13:47:38;12.30;99.90
27647;DHT22;42229;51.230;6.240;2023-03-26T13:53:37;12.50;99.90
27647;DHT22;42229;51.230;6.240;2023-03-26T13:56:16;12.50;99.90
27647;DHT22;42229;51.230;6.240;2023-03-26T13:58:48;12.50;99.90
27647;DHT22;42229;51.230;6.240;2023-03-26T14:01:31;12.60;99.90
27647;DHT22;42229;51.230;6.240;2023-03-26T14:09:55;12.50;99.90
27647;DHT22;42229;51.230;6.240;2023-03-26T14:15:39;12.60;99.90
27647;DHT22;42229;51.230;6.240;2023-03-26T14:23:41;12.80;99.90
27647;DHT22;42229;51.230;6.240;2023-03-26T14:29:22;12.80;99.90
27647;DHT22;42229;51.230;6.240;2023-03-26T14:41:18;12.80;99.90
27647;DHT22;42229;51.230;6.240;2023-03-26T14:55:02;12.80;99.90
27647;DHT22;42229;51.230;6.240;2023-03-26T14:57:55;12.80;99.90
27647;DHT22;42229;51.230;6.240;2023-03-26T15:15:32;12.20;99.90
27647;DHT22;42229;51.230;6.240;2023-03-26T15:33:03;11.70;99.90
27647;DHT22;42229;51.230;6.240;2023-03-26T15:46:56;11.30;99.90
27647;DHT22;42229;51.230;6.240;2023-03-26T15:49:39;11.30;99.90
27647;DHT22;42229;51.230;6.240;2023-03-26T15:52:28;11.30;99.90
27647;DHT22;42229;51.230;6.240;2023-03-26T15:55:33;11.20;99.90
27647;DHT22;42229;51.230;6.240;2023-03-26T15:58:16;11.20;99.90
27647;DHT22;42229;51.230;6.240;2023-03-26T16:04:37;11.10;99.90
27647;DHT22;42229;51.230;6.240;2023-03-26T16:12:54;10.90;99.90
27647;DHT22;42229;51.230;6.240;2023-03-26T16:15:48;10.80;99.90
27647;DHT22;42229;51.230;6.240;2023-03-26T16:18:24;10.70;99.90
27647;DHT22;42229;51.230;6.240;2023-03-26T16:26:16;10.60;99.90
27647;DHT22;42229;51.230;6.240;2023-03-26T16:29:21;10.60;99.90
27647;DHT22;42229;51.230;6.240;2023-03-26T16:40:25;10.30;99.90
27647;DHT22;42229;51.230;6.240;2023-03-26T16:42:57;10.30;99.90
27647;DHT22;42229;51.230;6.240;2023-03-26T16:51:12;10.10;99.90
27647;DHT22;42229;51.230;6.240;2023-03-26T16:53:52;10.10;99.90
27647;DHT22;42229;51.230;6.240;2023-03-26T16:56:32;10.10;99.90
27647;DHT22;42229;51.230;6.240;2023-03-26T16:59:08;10.00;99.90
27647;DHT22;42229;51.230;6.240;2023-03-26T17:04:46;10.00;99.90
27647;DHT22;42229;51.230;6.240;2023-03-26T17:07:15;10.00;99.90
27647;DHT22;42229;51.230;6.240;2023-03-26T17:12:40;9.90;99.90
27647;DHT22;42229;51.230;6.240;2023-03-26T17:15:12;9.90;99.90
27647;DHT22;42229;51.230;6.240;2023-03-26T17:20:28;9.70;99.90
27647;DHT22;42229;51.230;6.240;2023-03-26T17:25:55;9.80;99.90
27647;DHT22;42229;51.230;6.240;2023-03-26T17:37:03;9.60;99.90
27647;DHT22;42229;51.230;6.240;2023-03-26T17:47:16;9.50;99.90
27647;DHT22;42229;51.230;6.240;2023-03-26T17:49:47;9.50;99.90
27647;DHT22;42229;51.230;6.240;2023-03-26T17:52:24;9.50;99.90
27647;DHT22;42229;51.230;6.240;2023-03-26T17:54:54;9.50;99.90
27647;DHT22;42229;51.230;6.240;2023-03-26T17:57:32;9.50;99.90
27647;DHT22;42229;51.230;6.240;2023-03-26T18:00:14;9.60;99.90
27647;DHT22;42229;51.230;6.240;2023-03-26T18:02:48;9.40;99.90
27647;DHT22;42229;51.230;6.240;2023-03-26T18:05:18;9.30;99.90
27647;DHT22;42229;51.230;6.240;2023-03-26T18:16:16;9.30;99.90
27647;DHT22;42229;51.230;6.240;2023-03-26T18:18:49;9.30;99.90
27647;DHT22;42229;51.230;6.240;2023-03-26T18:24:00;9.20;99.90
27647;DHT22;42229;51.230;6.240;2023-03-26T18:26:32;9.20;99.90
27647;DHT22;42229;51.230;6.240;2023-03-26T18:29:10;9.20;99.90
27647;DHT22;42229;51.230;6.240;2023-03-26T18:31:41;9.10;99.90
27647;DHT22;42229;51.230;6.240;2023-03-26T18:34:12;9.10;99.90
27647;DHT22;42229;51.230;6.240;2023-03-26T18:36:56;9.10;99.90
27647;DHT22;42229;51.230;6.240;2023-03-26T18:39:26;9.10;99.90
27647;DHT22;42229;51.230;6.240;2023-03-26T18:41:52;9.10;99.90
27647;DHT22;42229;51.230;6.240;2023-03-26T18:44:19;9.10;99.90
27647;DHT22;42229;51.230;6.240;2023-03-26T18:46:45;9.00;99.90
27647;DHT22;42229;51.230;6.240;2023-03-26T18:49:15;9.10;99.90
27647;DHT22;42229;51.230;6.240;2023-03-26T18:51:41;9.10;99.90
27647;DHT22;42229;51.230;6.240;2023-03-26T18:54:10;9.10;99.90
27647;DHT22;42229;51.230;6.240;2023-03-26T18:56:42;9.00;99.90
27647;DHT22;42229;51.230;6.240;2023-03-26T18:59:18;9.10;99.90
27647;DHT22;42229;51.230;6.240;2023-03-26T19:01:47;9.00;99.90
27647;DHT22;42229;51.230;6.240;2023-03-26T19:04:13;9.00;99.90
27647;DHT22;42229;51.230;6.240;2023-03-26T19:06:40;8.90;99.90
27647;DHT22;42229;51.230;6.240;2023-03-26T19:09:07;9.00;99.90
27647;DHT22;42229;51.230;6.240;2023-03-26T19:11:38;8.90;99.90
27647;DHT22;42229;51.230;6.240;2023-03-26T19:14:07;8.90;99.90
27647;DHT22;42229;51.230;6.240;2023-03-26T19:16:42;8.90;99.90
27647;DHT22;42229;51.230;6.240;2023-03-26T19:19:15;8.90;99.90
27647;DHT22;42229;51.230;6.240;2023-03-26T19:21:44;8.90;99.90
27647;DHT22;42229;51.230;6.240;2023-03-26T19:24:11;8.90;99.90
27647;DHT22;42229;51.230;6.240;2023-03-26T19:26:37;8.80;99.90
27647;DHT22;42229;51.230;6.240;2023-03-26T19:29:04;8.80;99.90
27647;DHT22;42229;51.230;6.240;2023-03-26T19:31:35;8.80;99.90
27647;DHT22;42229;51.230;6.240;2023-03-26T19:36:56;8.80;99.90
27647;DHT22;42229;51.230;6.240;2023-03-26T19:39:37;8.80;99.90
27647;DHT22;42229;51.230;6.240;2023-03-26T19:42:03;8.80;99.90
27647;DHT22;42229;51.230;6.240;2023-03-26T19:44:31;8.70;99.90
27647;DHT22;42229;51.230;6.240;2023-03-26T19:47:12;8.70;99.90
27647;DHT22;42229;51.230;6.240;2023-03-26T19:50:12;8.70;99.90
27647;DHT22;42229;51.230;6.240;2023-03-26T19:52:38;8.70;99.90
27647;DHT22;42229;51.230;6.240;2023-03-26T19:57:32;8.70;99.90
27647;DHT22;42229;51.230;6.240;2023-03-26T20:00:03;8.60;99.90
27647;DHT22;42229;51.230;6.240;2023-03-26T20:02:34;8.60;99.90
27647;DHT22;42229;51.230;6.240;2023-03-26T20:05:00;8.60;99.90
27647;DHT22;42229;51.230;6.240;2023-03-26T20:07:26;8.60;99.90
27647;DHT22;42229;51.230;6.240;2023-03-26T20:09:53;8.60;99.90
27647;DHT22;42229;51.230;6.240;2023-03-26T20:12:22;8.60;99.90
27647;DHT22;42229;51.230;6.240;2023-03-26T20:14:49;8.60;99.90
27647;DHT22;42229;51.230;6.240;2023-03-26T20:17:16;8.50;99.90
27647;DHT22;42229;51.230;6.240;2023-03-26T20:19:44;8.40;99.90
27647;DHT22;42229;51.230;6.240;2023-03-26T20:22:12;8.40;99.90
27647;DHT22;42229;51.230;6.240;2023-03-26T20:24:40;8.40;99.90
27647;DHT22;42229;51.230;6.240;2023-03-26T20:27:07;8.40;99.90
27647;DHT22;42229;51.230;6.240;2023-03-26T20:29:33;8.30;99.90
27647;DHT22;42229;51.230;6.240;2023-03-26T20:32:01;8.30;99.90
27647;DHT22;42229;51.230;6.240;2023-03-26T20:34:31;8.30;99.90
27647;DHT22;42229;51.230;6.240;2023-03-26T20:36:57;8.20;99.90
27647;DHT22;42229;51.230;6.240;2023-03-26T20:39:23;8.20;99.90
27647;DHT22;42229;51.230;6.240;2023-03-26T20:41:50;8.20;99.90
27647;DHT22;42229;51.230;6.240;2023-03-26T20:44:18;8.10;99.90
27647;DHT22;42229;51.230;6.240;2023-03-26T20:46:46;8.10;99.90
27647;DHT22;42229;51.230;6.240;2023-03-26T20:49:13;8.10;99.90
27647;DHT22;42229;51.230;6.240;2023-03-26T20:51:40;8.10;99.90
27647;DHT22;42229;51.230;6.240;2023-03-26T20:54:13;8.10;99.90
27647;DHT22;42229;51.230;6.240;2023-03-26T20:56:41;8.10;99.90
27647;DHT22;42229;51.230;6.240;2023-03-26T20:59:08;8.00;99.90
27647;DHT22;42229;51.230;6.240;2023-03-26T21:01:41;8.10;99.90
27647;DHT22;42229;51.230;6.240;2023-03-26T21:04:08;8.00;99.90
27647;DHT22;42229;51.230;6.240;2023-03-26T21:06:34;8.00;99.90
27647;DHT22;42229;51.230;6.240;2023-03-26T21:09:00;7.90;99.90
27647;DHT22;42229;51.230;6.240;2023-03-26T21:14:19;7.90;99.90
27647;DHT22;42229;51.230;6.240;2023-03-26T21:16:47;7.90;99.90
27647;DHT22;42229;51.230;6.240;2023-03-26T21:19:13;7.90;99.90
27647;DHT22;42229;51.230;6.240;2023-03-26T21:29:37;7.70;99.90
27647;DHT22;42229;51.230;6.240;2023-03-26T21:32:04;7.60;99.90
27647;DHT22;42229;51.230;6.240;2023-03-26T21:34:30;7.60;99.90
27647;DHT22;42229;51.230;6.240;2023-03-26T21:36:59;7.60;99.90
27647;DHT22;42229;51.230;6.240;2023-03-26T21:39:26;7.50;99.90
27647;DHT22;42229;51.230;6.240;2023-03-26T21:41:53;7.50;99.90
27647;DHT22;42229;51.230;6.240;2023-03-26T21:44:20;7.40;99.90
27647;DHT22;42229;51.230;6.240;2023-03-26T21:46:47;7.40;99.90
27647;DHT22;42229;51.230;6.240;2023-03-26T21:49:14;7.30;99.90
27647;DHT22;42229;51.230;6.240;2023-03-26T21:51:42;7.30;99.90
27647;DHT22;42229;51.230;6.240;2023-03-26T21:59:31;7.10;99.90
27647;DHT22;42229;51.230;6.240;2023-03-26T22:04:56;7.00;99.90
27647;DHT22;42229;51.230;6.240;2023-03-26T22:09:55;6.90;99.90
27647;DHT22;42229;51.230;6.240;2023-03-26T22:12:22;6.90;99.90
27647;DHT22;42229;51.230;6.240;2023-03-26T22:14:50;6.90;99.90
27647;DHT22;42229;51.230;6.240;2023-03-26T22:17:17;6.90;99.90
27647;DHT22;42229;51.230;6.240;2023-03-26T22:19:44;6.80;99.90
27647;DHT22;42229;51.230;6.240;2023-03-26T22:22:10;6.80;99.90
27647;DHT22;42229;51.230;6.240;2023-03-26T22:24:37;6.80;99.90
27647;DHT22;42229;51.230;6.240;2023-03-26T22:27:03;6.70;99.90
27647;DHT22;42229;51.230;6.240;2023-03-26T22:29:30;6.60;99.90
27647;DHT22;42229;51.230;6.240;2023-03-26T22:31:56;6.60;99.90
27647;DHT22;42229;51.230;6.240;2023-03-26T22:34:22;6.50;99.90
27647;DHT22;42229;51.230;6.240;2023-03-26T22:36:49;6.50;99.90
27647;DHT22;42229;51.230;6.240;2023-03-26T22:39:16;6.40;99.90
27647;DHT22;42229;51.230;6.240;2023-03-26T22:41:43;6.30;99.90
27647;DHT22;42229;51.230;6.240;2023-03-26T22:44:09;6.30;99.90
27647;DHT22;42229;51.230;6.240;2023-03-26T22:46:35;6.20;99.90